sensor_id;sensor_type;location;lat;lon;timestamp;P1;durP1;ratioP1;P2;durP2;ratioP2
32864;SDS011;19219;44.500;11.188;2024-01-30T00:01:28;79.93;;;36.92;;
32864;SDS011;19219;44.500;11.188;2024-01-30T00:03:54;84.75;;;36.63;;
32864;SDS011;19219;44.500;11.188;2024-01-30T00:06:20;84.03;;;35.85;;
32864;SDS011;19219;44.500;11.188;2024-01-30T00:08:46;84.40;;;37.50;;
32864;SDS011;19219;44.500;11.188;2024-01-30T00:11:14;78.00;;;34.10;;
32864;SDS011;19219;44.500;11.188;2024-01-30T00:13:40;76.03;;;33.75;;
32864;SDS011;19219;44.500;11.188;2024-01-30T00:16:06;83.47;;;37.13;;
32864;SDS011;19219;44.500;11.188;2024-01-30T00:18:32;85.60;;;34.65;;
32864;SDS011;19219;44.500;11.188;2024-01-30T00:20:57;81.60;;;36.75;;
32864;SDS011;19219;44.500;11.188;2024-01-30T00:23:23;84.20;;;37.30;;
32864;SDS011;19219;44.500;11.188;2024-01-30T00:25:49;88.22;;;37.90;;
32864;SDS011;19219;44.500;11.188;2024-01-30T00:28:15;87.47;;;34.10;;
32864;SDS011;19219;44.500;11.188;2024-01-30T00:30:41;88.97;;;37.28;;
32864;SDS011;19219;44.500;11.188;2024-01-30T00:33:07;97.25;;;37.63;;
32864;SDS011;19219;44.500;11.188;2024-01-30T00:35:33;87.05;;;32.67;;
32864;SDS011;19219;44.500;11.188;2024-01-30T00:37:59;75.57;;;34.67;;
32864;SDS011;19219;44.500;11.188;2024-01-30T00:40:25;82.60;;;36.42;;
32864;SDS011;19219;44.500;11.188;2024-01-30T00:42:50;85.72;;;34.60;;
32864;SDS011;19219;44.500;11.188;2024-01-30T00:45:16;83.70;;;36.47;;
32864;SDS011;19219;44.500;11.188;2024-01-30T00:47:42;78.75;;;34.35;;
32864;SDS011;19219;44.500;11.188;2024-01-30T00:50:08;83.82;;;38.78;;
32864;SDS011;19219;44.500;11.188;2024-01-30T00:52:34;84.30;;;35.85;;
32864;SDS011;19219;44.500;11.188;2024-01-30T00:55:00;73.43;;;31.25;;
32864;SDS011;19219;44.500;11.188;2024-01-30T00:57:26;74.38;;;34.55;;
32864;SDS011;19219;44.500;11.188;2024-01-30T00:59:52;76.65;;;32.60;;
32864;SDS011;19219;44.500;11.188;2024-01-30T01:02:17;77.10;;;34.22;;
32864;SDS011;19219;44.500;11.188;2024-01-30T01:04:44;84.55;;;32.70;;
32864;SDS011;19219;44.500;11.188;2024-01-30T01:07:10;72.78;;;30.83;;
32864;SDS011;19219;44.500;11.188;2024-01-30T01:09:36;81.88;;;33.33;;
32864;SDS011;19219;44.500;11.188;2024-01-30T01:12:03;69.80;;;30.65;;
32864;SDS011;19219;44.500;11.188;2024-01-30T01:14:29;84.97;;;35.90;;
32864;SDS011;19219;44.500;11.188;2024-01-30T01:16:55;76.35;;;32.75;;
32864;SDS011;19219;44.500;11.188;2024-01-30T01:19:21;78.25;;;33.38;;
32864;SDS011;19219;44.500;11.188;2024-01-30T01:21:47;83.78;;;32.92;;
32864;SDS011;19219;44.500;11.188;2024-01-30T01:24:13;84.43;;;35.22;;
32864;SDS011;19219;44.500;11.188;2024-01-30T01:26:38;70.72;;;32.33;;
32864;SDS011;19219;44.500;11.188;2024-01-30T01:29:04;77.70;;;33.08;;
32864;SDS011;19219;44.500;11.188;2024-01-30T01:34:11;80.47;;;32.42;;
32864;SDS011;19219;44.500;11.188;2024-01-30T01:36:37;73.68;;;31.80;;
32864;SDS011;19219;44.500;11.188;2024-01-30T01:39:03;79.18;;;34.85;;
32864;SDS011;19219;44.500;11.188;2024-01-30T01:41:30;67.30;;;34.80;;
32864;SDS011;19219;44.500;11.188;2024-01-30T01:43:57;74.63;;;36.10;;
32864;SDS011;19219;44.500;11.188;2024-01-30T01:46:23;75.85;;;36.45;;
32864;SDS011;19219;44.500;11.188;2024-01-30T01:48:51;70.43;;;33.63;;
32864;SDS011;19219;44.500;11.188;2024-01-30T01:51:17;64.45;;;28.55;;
32864;SDS011;19219;44.500;11.188;2024-01-30T01:53:43;73.30;;;31.63;;
32864;SDS011;19219;44.500;11.188;2024-01-30T01:56:09;71.63;;;32.60;;
32864;SDS011;19219;44.500;11.188;2024-01-30T01:58:36;65.68;;;29.58;;
32864;SDS011;19219;44.500;11.188;2024-01-30T02:01:02;61.38;;;29.85;;
32864;SDS011;19219;44.500;11.188;2024-01-30T02:03:30;70.00;;;31.05;;
32864;SDS011;19219;44.500;11.188;2024-01-30T02:05:56;67.75;;;30.02;;
32864;SDS011;19219;44.500;11.188;2024-01-30T02:08:22;70.50;;;34.17;;
32864;SDS011;19219;44.500;11.188;2024-01-30T02:10:49;65.82;;;31.67;;
32864;SDS011;19219;44.500;11.188;2024-01-30T02:13:14;81.85;;;33.50;;
32864;SDS011;19219;44.500;11.188;2024-01-30T02:15:40;71.07;;;30.52;;
32864;SDS011;19219;44.500;11.188;2024-01-30T02:18:06;69.22;;;31.55;;
32864;SDS011;19219;44.500;11.188;2024-01-30T02:20:31;76.10;;;32.97;;
32864;SDS011;19219;44.500;11.188;2024-01-30T02:23:00;65.20;;;30.58;;
32864;SDS011;19219;44.500;11.188;2024-01-30T02:25:30;79.72;;;32.83;;
32864;SDS011;19219;44.500;11.188;2024-01-30T02:27:58;73.25;;;28.75;;
32864;SDS011;19219;44.500;11.188;2024-01-30T02:30:24;65.68;;;31.15;;
32864;SDS011;19219;44.500;11.188;2024-01-30T02:32:50;74.20;;;33.35;;
32864;SDS011;19219;44.500;11.188;2024-01-30T02:35:15;71.85;;;32.05;;
32864;SDS011;19219;44.500;11.188;2024-01-30T02:37:41;74.35;;;32.80;;
32864;SDS011;19219;44.500;11.188;2024-01-30T02:40:07;69.82;;;32.45;;
32864;SDS011;19219;44.500;11.188;2024-01-30T02:42:33;74.10;;;32.85;;
32864;SDS011;19219;44.500;11.188;2024-01-30T02:44:58;66.93;;;30.42;;
32864;SDS011;19219;44.500;11.188;2024-01-30T02:47:24;71.38;;;31.58;;
32864;SDS011;19219;44.500;11.188;2024-01-30T02:49:50;61.00;;;31.70;;
32864;SDS011;19219;44.500;11.188;2024-01-30T02:52:15;74.40;;;31.23;;
32864;SDS011;19219;44.500;11.188;2024-01-30T02:54:41;60.58;;;30.92;;
32864;SDS011;19219;44.500;11.188;2024-01-30T02:57:07;67.78;;;32.72;;
32864;SDS011;19219;44.500;11.188;2024-01-30T02:59:33;66.95;;;32.78;;
32864;SDS011;19219;44.500;11.188;2024-01-30T03:02:00;60.28;;;30.73;;
32864;SDS011;19219;44.500;11.188;2024-01-30T03:04:26;64.57;;;30.00;;
32864;SDS011;19219;44.500;11.188;2024-01-30T03:06:52;60.47;;;30.25;;
32864;SDS011;19219;44.500;11.188;2024-01-30T03:09:18;64.20;;;30.45;;
32864;SDS011;19219;44.500;11.188;2024-01-30T03:11:43;69.93;;;31.33;;
32864;SDS011;19219;44.500;11.188;2024-01-30T03:14:09;70.47;;;33.05;;
32864;SDS011;19219;44.500;11.188;2024-01-30T03:16:37;68.97;;;31.75;;
32864;SDS011;19219;44.500;11.188;2024-01-30T03:19:05;72.68;;;31.98;;
32864;SDS011;19219;44.500;11.188;2024-01-30T03:21:32;61.92;;;31.38;;
32864;SDS011;19219;44.500;11.188;2024-01-30T03:23:58;69.53;;;33.85;;
32864;SDS011;19219;44.500;11.188;2024-01-30T03:26:24;66.40;;;31.15;;
32864;SDS011;19219;44.500;11.188;2024-01-30T03:28:50;66.22;;;31.50;;
32864;SDS011;19219;44.500;11.188;2024-01-30T03:31:16;66.90;;;33.97;;
32864;SDS011;19219;44.500;11.188;2024-01-30T03:33:42;66.28;;;34.22;;
32864;SDS011;19219;44.500;11.188;2024-01-30T03:36:08;73.40;;;31.95;;
32864;SDS011;19219;44.500;11.188;2024-01-30T03:38:34;68.57;;;32.03;;
32864;SDS011;19219;44.500;11.188;2024-01-30T03:41:01;74.50;;;33.28;;
32864;SDS011;19219;44.500;11.188;2024-01-30T03:43:27;55.78;;;28.63;;
32864;SDS011;19219;44.500;11.188;2024-01-30T03:45:52;64.68;;;29.70;;
32864;SDS011;19219;44.500;11.188;2024-01-30T03:48:18;61.00;;;30.63;;
32864;SDS011;19219;44.500;11.188;2024-01-30T03:50:45;75.05;;;30.52;;
32864;SDS011;19219;44.500;11.188;2024-01-30T03:53:10;64.15;;;30.17;;
32864;SDS011;19219;44.500;11.188;2024-01-30T03:55:36;66.53;;;31.88;;
32864;SDS011;19219;44.500;11.188;2024-01-30T03:58:02;68.47;;;31.33;;
32864;SDS011;19219;44.500;11.188;2024-01-30T04:00:27;68.78;;;33.15;;
32864;SDS011;19219;44.500;11.188;2024-01-30T04:02:53;68.45;;;31.70;;
32864;SDS011;19219;44.500;11.188;2024-01-30T04:05:19;57.85;;;30.67;;
32864;SDS011;19219;44.500;11.188;2024-01-30T04:07:44;73.20;;;32.28;;
32864;SDS011;19219;44.500;11.188;2024-01-30T04:10:10;65.88;;;32.58;;
32864;SDS011;19219;44.500;11.188;2024-01-30T04:12:36;69.13;;;30.15;;
32864;SDS011;19219;44.500;11.188;2024-01-30T04:15:02;56.95;;;28.55;;
32864;SDS011;19219;44.500;11.188;2024-01-30T04:17:28;62.90;;;30.42;;
32864;SDS011;19219;44.500;11.188;2024-01-30T04:19:54;65.13;;;30.88;;
32864;SDS011;19219;44.500;11.188;2024-01-30T04:22:20;58.75;;;30.45;;
32864;SDS011;19219;44.500;11.188;2024-01-30T04:24:46;61.63;;;31.50;;
32864;SDS011;19219;44.500;11.188;2024-01-30T04:27:12;61.38;;;28.02;;
32864;SDS011;19219;44.500;11.188;2024-01-30T04:29:38;61.15;;;33.05;;
32864;SDS011;19219;44.500;11.188;2024-01-30T04:32:03;66.07;;;27.60;;
32864;SDS011;19219;44.500;11.188;2024-01-30T04:34:29;67.32;;;30.98;;
32864;SDS011;19219;44.500;11.188;2024-01-30T04:36:55;70.38;;;32.50;;
32864;SDS011;19219;44.500;11.188;2024-01-30T04:39:21;66.45;;;29.95;;
32864;SDS011;19219;44.500;11.188;2024-01-30T04:41:47;70.28;;;30.13;;
32864;SDS011;19219;44.500;11.188;2024-01-30T04:44:13;68.65;;;34.08;;
32864;SDS011;19219;44.500;11.188;2024-01-30T04:46:39;66.97;;;30.67;;
32864;SDS011;19219;44.500;11.188;2024-01-30T04:49:05;69.47;;;34.28;;
32864;SDS011;19219;44.500;11.188;2024-01-30T04:51:32;60.85;;;31.30;;
32864;SDS011;19219;44.500;11.188;2024-01-30T04:53:58;63.05;;;29.55;;
32864;SDS011;19219;44.500;11.188;2024-01-30T04:56:24;67.93;;;30.40;;
32864;SDS011;19219;44.500;11.188;2024-01-30T04:58:50;69.97;;;30.75;;
32864;SDS011;19219;44.500;11.188;2024-01-30T05:01:16;66.88;;;28.25;;
32864;SDS011;19219;44.500;11.188;2024-01-30T05:03:42;73.30;;;28.17;;
32864;SDS011;19219;44.500;11.188;2024-01-30T05:06:07;62.67;;;32.15;;
32864;SDS011;19219;44.500;11.188;2024-01-30T05:08:33;66.78;;;31.42;;
32864;SDS011;19219;44.500;11.188;2024-01-30T05:11:01;58.10;;;28.00;;
32864;SDS011;19219;44.500;11.188;2024-01-30T05:13:29;72.13;;;33.38;;
32864;SDS011;19219;44.500;11.188;2024-01-30T05:15:58;58.63;;;29.47;;
32864;SDS011;19219;44.500;11.188;2024-01-30T05:18:24;64.65;;;30.08;;
32864;SDS011;19219;44.500;11.188;2024-01-30T05:20:50;71.28;;;29.30;;
32864;SDS011;19219;44.500;11.188;2024-01-30T05:23:16;62.63;;;25.40;;
32864;SDS011;19219;44.500;11.188;2024-01-30T05:25:43;64.78;;;30.08;;
32864;SDS011;19219;44.500;11.188;2024-01-30T05:28:09;59.67;;;29.77;;
32864;SDS011;19219;44.500;11.188;2024-01-30T05:30:34;66.10;;;31.13;;
32864;SDS011;19219;44.500;11.188;2024-01-30T05:33:00;70.50;;;32.22;;
32864;SDS011;19219;44.500;11.188;2024-01-30T05:35:26;67.53;;;28.77;;
32864;SDS011;19219;44.500;11.188;2024-01-30T05:37:55;62.30;;;28.33;;
32864;SDS011;19219;44.500;11.188;2024-01-30T05:40:21;62.78;;;28.38;;
32864;SDS011;19219;44.500;11.188;2024-01-30T05:42:47;58.92;;;31.05;;
32864;SDS011;19219;44.500;11.188;2024-01-30T05:45:13;62.97;;;30.85;;
32864;SDS011;19219;44.500;11.188;2024-01-30T05:47:38;61.67;;;28.67;;
32864;SDS011;19219;44.500;11.188;2024-01-30T05:50:05;64.20;;;30.17;;
32864;SDS011;19219;44.500;11.188;2024-01-30T05:52:31;66.05;;;29.60;;
32864;SDS011;19219;44.500;11.188;2024-01-30T05:54:56;64.40;;;27.95;;
32864;SDS011;19219;44.500;11.188;2024-01-30T05:57:22;69.43;;;29.77;;
32864;SDS011;19219;44.500;11.188;2024-01-30T05:59:48;69.13;;;29.58;;
32864;SDS011;19219;44.500;11.188;2024-01-30T06:02:13;63.65;;;28.15;;
32864;SDS011;19219;44.500;11.188;2024-01-30T06:04:39;71.43;;;31.30;;
32864;SDS011;19219;44.500;11.188;2024-01-30T06:07:05;57.10;;;28.13;;
32864;SDS011;19219;44.500;11.188;2024-01-30T06:09:31;64.28;;;29.05;;
32864;SDS011;19219;44.500;11.188;2024-01-30T06:11:57;72.50;;;28.98;;
32864;SDS011;19219;44.500;11.188;2024-01-30T06:14:23;66.47;;;31.27;;
32864;SDS011;19219;44.500;11.188;2024-01-30T06:16:48;68.78;;;28.92;;
32864;SDS011;19219;44.500;11.188;2024-01-30T06:19:14;62.85;;;29.77;;
32864;SDS011;19219;44.500;11.188;2024-01-30T06:21:40;59.00;;;27.20;;
32864;SDS011;19219;44.500;11.188;2024-01-30T06:24:06;83.82;;;37.97;;
32864;SDS011;19219;44.500;11.188;2024-01-30T06:26:32;57.83;;;28.08;;
32864;SDS011;19219;44.500;11.188;2024-01-30T06:28:57;61.58;;;28.27;;
32864;SDS011;19219;44.500;11.188;2024-01-30T06:31:23;68.05;;;29.90;;
32864;SDS011;19219;44.500;11.188;2024-01-30T06:33:49;66.63;;;29.05;;
32864;SDS011;19219;44.500;11.188;2024-01-30T06:36:15;72.07;;;32.25;;
32864;SDS011;19219;44.500;11.188;2024-01-30T06:38:41;64.75;;;29.77;;
32864;SDS011;19219;44.500;11.188;2024-01-30T06:41:07;64.15;;;32.00;;
32864;SDS011;19219;44.500;11.188;2024-01-30T06:43:32;63.08;;;28.25;;
32864;SDS011;19219;44.500;11.188;2024-01-30T06:45:58;63.63;;;28.67;;
32864;SDS011;19219;44.500;11.188;2024-01-30T06:48:24;61.88;;;26.92;;
32864;SDS011;19219;44.500;11.188;2024-01-30T06:50:52;67.70;;;32.47;;
32864;SDS011;19219;44.500;11.188;2024-01-30T06:53:19;90.18;;;38.45;;
32864;SDS011;19219;44.500;11.188;2024-01-30T06:55:44;78.80;;;35.53;;
32864;SDS011;19219;44.500;11.188;2024-01-30T06:58:10;59.25;;;28.70;;
32864;SDS011;19219;44.500;11.188;2024-01-30T07:00:36;61.53;;;29.80;;
32864;SDS011;19219;44.500;11.188;2024-01-30T07:03:02;67.65;;;29.20;;
32864;SDS011;19219;44.500;11.188;2024-01-30T07:05:28;66.05;;;31.48;;
32864;SDS011;19219;44.500;11.188;2024-01-30T07:07:54;63.53;;;27.98;;
32864;SDS011;19219;44.500;11.188;2024-01-30T07:10:19;67.47;;;28.77;;
32864;SDS011;19219;44.500;11.188;2024-01-30T07:12:45;60.55;;;28.60;;
32864;SDS011;19219;44.500;11.188;2024-01-30T07:15:11;70.35;;;29.13;;
32864;SDS011;19219;44.500;11.188;2024-01-30T07:17:39;56.45;;;28.60;;
32864;SDS011;19219;44.500;11.188;2024-01-30T07:20:05;81.28;;;34.55;;
32864;SDS011;19219;44.500;11.188;2024-01-30T07:22:33;64.78;;;30.67;;
32864;SDS011;19219;44.500;11.188;2024-01-30T07:24:59;60.42;;;30.15;;
32864;SDS011;19219;44.500;11.188;2024-01-30T07:27:25;64.03;;;27.33;;
32864;SDS011;19219;44.500;11.188;2024-01-30T07:29:50;52.97;;;28.85;;
32864;SDS011;19219;44.500;11.188;2024-01-30T07:32:16;65.07;;;31.55;;
32864;SDS011;19219;44.500;11.188;2024-01-30T07:34:41;55.75;;;27.80;;
32864;SDS011;19219;44.500;11.188;2024-01-30T07:37:07;62.25;;;28.33;;
32864;SDS011;19219;44.500;11.188;2024-01-30T07:39:33;50.83;;;25.83;;
32864;SDS011;19219;44.500;11.188;2024-01-30T07:41:59;65.35;;;29.83;;
32864;SDS011;19219;44.500;11.188;2024-01-30T07:44:25;60.45;;;30.13;;
32864;SDS011;19219;44.500;11.188;2024-01-30T07:46:51;61.88;;;31.40;;
32864;SDS011;19219;44.500;11.188;2024-01-30T07:49:16;68.15;;;31.35;;
32864;SDS011;19219;44.500;11.188;2024-01-30T07:51:42;61.25;;;30.95;;
32864;SDS011;19219;44.500;11.188;2024-01-30T07:54:15;71.72;;;32.65;;
32864;SDS011;19219;44.500;11.188;2024-01-30T07:56:40;62.85;;;31.85;;
32864;SDS011;19219;44.500;11.188;2024-01-30T07:59:09;69.25;;;34.72;;
32864;SDS011;19219;44.500;11.188;2024-01-30T08:01:36;114.70;;;55.72;;
32864;SDS011;19219;44.500;11.188;2024-01-30T08:04:02;73.05;;;37.00;;
32864;SDS011;19219;44.500;11.188;2024-01-30T08:06:27;70.32;;;35.55;;
32864;SDS011;19219;44.500;11.188;2024-01-30T08:08:53;70.88;;;33.05;;
32864;SDS011;19219;44.500;11.188;2024-01-30T08:11:22;76.53;;;35.17;;
32864;SDS011;19219;44.500;11.188;2024-01-30T08:13:51;74.90;;;36.03;;
32864;SDS011;19219;44.500;11.188;2024-01-30T08:16:20;79.10;;;37.03;;
32864;SDS011;19219;44.500;11.188;2024-01-30T08:18:46;66.40;;;34.38;;
32864;SDS011;19219;44.500;11.188;2024-01-30T08:21:11;73.90;;;34.25;;
32864;SDS011;19219;44.500;11.188;2024-01-30T08:23:40;65.60;;;32.53;;
32864;SDS011;19219;44.500;11.188;2024-01-30T08:26:06;68.05;;;34.22;;
32864;SDS011;19219;44.500;11.188;2024-01-30T08:28:32;57.28;;;31.98;;
32864;SDS011;19219;44.500;11.188;2024-01-30T08:30:58;59.45;;;31.52;;
32864;SDS011;19219;44.500;11.188;2024-01-30T08:33:23;59.35;;;34.72;;
32864;SDS011;19219;44.500;11.188;2024-01-30T08:35:49;64.13;;;35.35;;
32864;SDS011;19219;44.500;11.188;2024-01-30T08:38:15;56.35;;;32.17;;
32864;SDS011;19219;44.500;11.188;2024-01-30T08:40:40;56.22;;;33.47;;
32864;SDS011;19219;44.500;11.188;2024-01-30T08:43:06;51.75;;;30.98;;
32864;SDS011;19219;44.500;11.188;2024-01-30T08:45:33;46.28;;;31.55;;
32864;SDS011;19219;44.500;11.188;2024-01-30T08:47:58;54.95;;;33.25;;
32864;SDS011;19219;44.500;11.188;2024-01-30T08:50:24;49.33;;;30.60;;
32864;SDS011;19219;44.500;11.188;2024-01-30T08:52:50;44.95;;;31.63;;
32864;SDS011;19219;44.500;11.188;2024-01-30T08:55:15;50.97;;;30.95;;
32864;SDS011;19219;44.500;11.188;2024-01-30T08:57:41;54.47;;;32.95;;
32864;SDS011;19219;44.500;11.188;2024-01-30T09:00:07;48.53;;;30.23;;
32864;SDS011;19219;44.500;11.188;2024-01-30T09:02:34;50.05;;;31.02;;
32864;SDS011;19219;44.500;11.188;2024-01-30T09:05:00;45.00;;;29.35;;
32864;SDS011;19219;44.500;11.188;2024-01-30T09:07:25;53.28;;;30.38;;
32864;SDS011;19219;44.500;11.188;2024-01-30T09:09:51;47.42;;;28.67;;
32864;SDS011;19219;44.500;11.188;2024-01-30T09:12:17;46.75;;;29.23;;
32864;SDS011;19219;44.500;11.188;2024-01-30T09:14:42;44.42;;;27.50;;
32864;SDS011;19219;44.500;11.188;2024-01-30T09:17:08;39.35;;;27.52;;
32864;SDS011;19219;44.500;11.188;2024-01-30T09:19:34;47.22;;;27.92;;
32864;SDS011;19219;44.500;11.188;2024-01-30T09:22:00;51.63;;;29.73;;
32864;SDS011;19219;44.500;11.188;2024-01-30T09:24:26;43.60;;;28.83;;
32864;SDS011;19219;44.500;11.188;2024-01-30T09:26:53;42.15;;;27.00;;
32864;SDS011;19219;44.500;11.188;2024-01-30T09:29:19;45.97;;;28.88;;
32864;SDS011;19219;44.500;11.188;2024-01-30T09:31:45;45.70;;;29.10;;
32864;SDS011;19219;44.500;11.188;2024-01-30T09:34:11;44.83;;;30.40;;
32864;SDS011;19219;44.500;11.188;2024-01-30T09:36:37;44.97;;;29.20;;
32864;SDS011;19219;44.500;11.188;2024-01-30T09:39:03;46.47;;;30.63;;
32864;SDS011;19219;44.500;11.188;2024-01-30T09:41:29;43.05;;;28.77;;
32864;SDS011;19219;44.500;11.188;2024-01-30T09:43:58;51.35;;;32.50;;
32864;SDS011;19219;44.500;11.188;2024-01-30T09:46:26;45.35;;;28.67;;
32864;SDS011;19219;44.500;11.188;2024-01-30T09:48:53;47.72;;;29.45;;
32864;SDS011;19219;44.500;11.188;2024-01-30T09:51:20;51.92;;;31.00;;
32864;SDS011;19219;44.500;11.188;2024-01-30T09:53:47;46.85;;;30.17;;
32864;SDS011;19219;44.500;11.188;2024-01-30T09:56:14;47.83;;;30.20;;
32864;SDS011;19219;44.500;11.188;2024-01-30T09:58:40;45.17;;;30.05;;
32864;SDS011;19219;44.500;11.188;2024-01-30T10:01:07;41.25;;;27.95;;
32864;SDS011;19219;44.500;11.188;2024-01-30T10:03:32;39.95;;;28.02;;
32864;SDS011;19219;44.500;11.188;2024-01-30T10:05:58;47.70;;;30.63;;
32864;SDS011;19219;44.500;11.188;2024-01-30T10:08:26;43.50;;;29.70;;
32864;SDS011;19219;44.500;11.188;2024-01-30T10:10:52;46.72;;;29.02;;
32864;SDS011;19219;44.500;11.188;2024-01-30T10:13:17;45.10;;;28.73;;
32864;SDS011;19219;44.500;11.188;2024-01-30T10:15:44;37.20;;;27.33;;
32864;SDS011;19219;44.500;11.188;2024-01-30T10:18:10;41.38;;;28.00;;
32864;SDS011;19219;44.500;11.188;2024-01-30T10:20:36;38.20;;;26.90;;
32864;SDS011;19219;44.500;11.188;2024-01-30T10:23:02;34.97;;;25.98;;
32864;SDS011;19219;44.500;11.188;2024-01-30T10:25:28;58.88;;;37.88;;
32864;SDS011;19219;44.500;11.188;2024-01-30T10:27:56;42.85;;;27.77;;
32864;SDS011;19219;44.500;11.188;2024-01-30T10:30:24;36.08;;;25.10;;
32864;SDS011;19219;44.500;11.188;2024-01-30T10:32:50;45.88;;;25.23;;
32864;SDS011;19219;44.500;11.188;2024-01-30T10:35:16;40.03;;;25.48;;
32864;SDS011;19219;44.500;11.188;2024-01-30T10:37:48;34.92;;;24.65;;
32864;SDS011;19219;44.500;11.188;2024-01-30T10:40:14;37.45;;;24.45;;
32864;SDS011;19219;44.500;11.188;2024-01-30T10:42:44;35.78;;;23.30;;
32864;SDS011;19219;44.500;11.188;2024-01-30T10:45:11;35.05;;;23.35;;
32864;SDS011;19219;44.500;11.188;2024-01-30T10:47:43;36.80;;;24.83;;
32864;SDS011;19219;44.500;11.188;2024-01-30T10:50:13;39.72;;;25.80;;
32864;SDS011;19219;44.500;11.188;2024-01-30T10:52:40;35.22;;;25.05;;
32864;SDS011;19219;44.500;11.188;2024-01-30T10:55:10;38.28;;;25.33;;
32864;SDS011;19219;44.500;11.188;2024-01-30T10:57:36;42.92;;;25.40;;
32864;SDS011;19219;44.500;11.188;2024-01-30T11:00:03;46.10;;;27.17;;
32864;SDS011;19219;44.500;11.188;2024-01-30T11:02:35;42.17;;;25.48;;
32864;SDS011;19219;44.500;11.188;2024-01-30T11:05:06;43.28;;;28.17;;
32864;SDS011;19219;44.500;11.188;2024-01-30T11:07:33;48.88;;;30.58;;
32864;SDS011;19219;44.500;11.188;2024-01-30T11:12:26;45.58;;;28.33;;
32864;SDS011;19219;44.500;11.188;2024-01-30T11:15:02;49.08;;;30.35;;
32864;SDS011;19219;44.500;11.188;2024-01-30T11:20:22;43.47;;;26.05;;
32864;SDS011;19219;44.500;11.188;2024-01-30T11:22:54;47.05;;;25.83;;
32864;SDS011;19219;44.500;11.188;2024-01-30T11:25:21;46.60;;;27.27;;
32864;SDS011;19219;44.500;11.188;2024-01-30T11:27:49;43.40;;;27.17;;
32864;SDS011;19219;44.500;11.188;2024-01-30T11:30:22;42.08;;;24.55;;
32864;SDS011;19219;44.500;11.188;2024-01-30T11:33:01;43.33;;;24.60;;
32864;SDS011;19219;44.500;11.188;2024-01-30T11:35:31;46.38;;;26.40;;
32864;SDS011;19219;44.500;11.188;2024-01-30T11:37:58;42.17;;;23.55;;
32864;SDS011;19219;44.500;11.188;2024-01-30T11:40:26;49.80;;;25.80;;
32864;SDS011;19219;44.500;11.188;2024-01-30T11:42:54;44.22;;;23.75;;
32864;SDS011;19219;44.500;11.188;2024-01-30T11:45:20;44.63;;;25.10;;
32864;SDS011;19219;44.500;11.188;2024-01-30T11:47:46;36.38;;;21.45;;
32864;SDS011;19219;44.500;11.188;2024-01-30T11:50:12;43.80;;;22.80;;
32864;SDS011;19219;44.500;11.188;2024-01-30T11:52:38;45.50;;;24.95;;
32864;SDS011;19219;44.500;11.188;2024-01-30T11:55:04;38.40;;;23.02;;
32864;SDS011;19219;44.500;11.188;2024-01-30T11:57:30;39.20;;;23.58;;
32864;SDS011;19219;44.500;11.188;2024-01-30T11:59:55;39.55;;;22.05;;
32864;SDS011;19219;44.500;11.188;2024-01-30T12:02:21;37.47;;;21.83;;
32864;SDS011;19219;44.500;11.188;2024-01-30T12:04:47;40.78;;;23.38;;
32864;SDS011;19219;44.500;11.188;2024-01-30T12:07:12;46.05;;;23.50;;
32864;SDS011;19219;44.500;11.188;2024-01-30T12:09:41;43.65;;;22.75;;
32864;SDS011;19219;44.500;11.188;2024-01-30T12:12:07;44.03;;;23.05;;
32864;SDS011;19219;44.500;11.188;2024-01-30T12:14:37;42.58;;;24.73;;
32864;SDS011;19219;44.500;11.188;2024-01-30T12:17:04;40.17;;;23.58;;
32864;SDS011;19219;44.500;11.188;2024-01-30T12:19:30;41.42;;;22.83;;
32864;SDS011;19219;44.500;11.188;2024-01-30T12:21:56;48.35;;;24.50;;
32864;SDS011;19219;44.500;11.188;2024-01-30T12:24:24;47.72;;;24.88;;
32864;SDS011;19219;44.500;11.188;2024-01-30T12:26:58;44.10;;;24.73;;
32864;SDS011;19219;44.500;11.188;2024-01-30T12:29:24;48.83;;;26.10;;
32864;SDS011;19219;44.500;11.188;2024-01-30T12:31:52;48.60;;;24.80;;
32864;SDS011;19219;44.500;11.188;2024-01-30T12:34:19;40.90;;;25.13;;
32864;SDS011;19219;44.500;11.188;2024-01-30T12:36:46;48.40;;;25.90;;
32864;SDS011;19219;44.500;11.188;2024-01-30T12:39:13;39.08;;;23.90;;
32864;SDS011;19219;44.500;11.188;2024-01-30T12:41:40;43.42;;;24.10;;
32864;SDS011;19219;44.500;11.188;2024-01-30T12:44:05;54.45;;;25.77;;
32864;SDS011;19219;44.500;11.188;2024-01-30T12:46:33;46.20;;;24.70;;
32864;SDS011;19219;44.500;11.188;2024-01-30T12:49:00;46.00;;;25.10;;
32864;SDS011;19219;44.500;11.188;2024-01-30T12:51:25;46.10;;;24.75;;
32864;SDS011;19219;44.500;11.188;2024-01-30T12:53:51;52.55;;;24.85;;
32864;SDS011;19219;44.500;11.188;2024-01-30T12:56:17;49.88;;;25.80;;
32864;SDS011;19219;44.500;11.188;2024-01-30T12:58:42;47.58;;;25.80;;
32864;SDS011;19219;44.500;11.188;2024-01-30T13:01:09;52.50;;;27.05;;
32864;SDS011;19219;44.500;11.188;2024-01-30T13:03:34;48.58;;;25.58;;
32864;SDS011;19219;44.500;11.188;2024-01-30T13:06:01;50.20;;;25.55;;
32864;SDS011;19219;44.500;11.188;2024-01-30T13:08:26;47.22;;;26.48;;
32864;SDS011;19219;44.500;11.188;2024-01-30T13:10:52;47.15;;;27.02;;
32864;SDS011;19219;44.500;11.188;2024-01-30T13:13:17;50.40;;;26.45;;
32864;SDS011;19219;44.500;11.188;2024-01-30T13:15:43;56.03;;;26.92;;
32864;SDS011;19219;44.500;11.188;2024-01-30T13:18:09;46.67;;;24.70;;
32864;SDS011;19219;44.500;11.188;2024-01-30T13:20:35;51.45;;;26.25;;
32864;SDS011;19219;44.500;11.188;2024-01-30T13:23:01;45.28;;;26.95;;
32864;SDS011;19219;44.500;11.188;2024-01-30T13:25:26;44.97;;;26.77;;
32864;SDS011;19219;44.500;11.188;2024-01-30T13:27:52;54.28;;;27.42;;
32864;SDS011;19219;44.500;11.188;2024-01-30T13:30:17;60.78;;;28.48;;
32864;SDS011;19219;44.500;11.188;2024-01-30T13:32:43;48.38;;;27.98;;
32864;SDS011;19219;44.500;11.188;2024-01-30T13:35:09;46.95;;;26.45;;
32864;SDS011;19219;44.500;11.188;2024-01-30T13:37:35;52.88;;;28.13;;
32864;SDS011;19219;44.500;11.188;2024-01-30T13:40:01;51.33;;;27.55;;
32864;SDS011;19219;44.500;11.188;2024-01-30T13:42:34;54.80;;;27.02;;
32864;SDS011;19219;44.500;11.188;2024-01-30T13:44:59;46.33;;;26.33;;
32864;SDS011;19219;44.500;11.188;2024-01-30T13:47:25;52.50;;;27.10;;
32864;SDS011;19219;44.500;11.188;2024-01-30T13:49:51;48.50;;;27.45;;
32864;SDS011;19219;44.500;11.188;2024-01-30T13:52:18;45.90;;;25.98;;
32864;SDS011;19219;44.500;11.188;2024-01-30T13:54:43;51.22;;;29.73;;
32864;SDS011;19219;44.500;11.188;2024-01-30T13:57:09;50.65;;;28.20;;
32864;SDS011;19219;44.500;11.188;2024-01-30T13:59:35;59.20;;;28.15;;
32864;SDS011;19219;44.500;11.188;2024-01-30T14:02:02;54.40;;;28.60;;
32864;SDS011;19219;44.500;11.188;2024-01-30T14:04:28;53.45;;;28.45;;
32864;SDS011;19219;44.500;11.188;2024-01-30T14:06:54;54.53;;;28.13;;
32864;SDS011;19219;44.500;11.188;2024-01-30T14:09:19;52.30;;;26.77;;
32864;SDS011;19219;44.500;11.188;2024-01-30T14:11:46;47.90;;;31.08;;